Time;durP1;ratioP1;P1;durP2;ratioP2;P2;SDS_P1;SDS_P2;PMS_P1;PMS_P2;Temp;Humidity;BMP_temperature;BMP_pressure;BME280_temperature;BME280_humidity;BME280_pressure;Samples;Min_cycle;Max_cycle;Signal;HPM_P1;HPM_P2
2021/01/22 00:02:01;;;;;;;36.92;32.47;;;21.10;50.50;;;;;;5092694;28;20115;-57
2021/01/22 00:04:27;;;;;;;39.30;35.22;;;21.10;50.50;;;;;;5092826;28;20085;-57
2021/01/22 00:06:54;;;;;;;40.58;32.85;;;21.10;50.50;;;;;;5092762;28;20024;-57
2021/01/22 00:09:20;;;;;;;35.17;29.73;;;21.10;50.50;;;;;;5092385;28;20028;-56
2021/01/22 00:11:47;;;;;;;35.55;31.73;;;21.10;50.50;;;;;;5092516;28;20027;-56
2021/01/22 00:14:13;;;;;;;34.85;31.15;;;21.10;50.50;;;;;;5092638;28;20113;-56
2021/01/22 00:16:39;;;;;;;32.97;28.45;;;21.00;50.50;;;;;;5092296;28;20016;-56
2021/01/22 00:19:05;;;;;;;33.97;27.98;;;21.00;50.50;;;;;;5092673;28;20032;-56
2021/01/22 00:21:32;;;;;;;32.63;29.10;;;21.00;50.50;;;;;;5092577;28;20389;-56
2021/01/22 00:23:58;;;;;;;38.97;34.78;;;21.00;50.50;;;;;;5092463;28;20060;-56
2021/01/22 00:26:25;;;;;;;38.90;34.80;;;21.00;50.50;;;;;;5092334;28;20032;-57
2021/01/22 00:28:51;;;;;;;35.22;28.73;;;21.00;50.60;;;;;;5092995;28;20431;-57
2021/01/22 00:31:17;;;;;;;31.80;27.63;;;21.00;50.50;;;;;;5092725;28;20031;-57
2021/01/22 00:33:43;;;;;;;34.13;28.45;;;21.00;50.50;;;;;;5092407;28;20107;-57
2021/01/22 00:36:09;;;;;;;30.00;26.33;;;21.00;50.50;;;;;;5090838;28;20109;-57
2021/01/22 00:38:35;;;;;;;27.83;24.90;;;21.00;50.50;;;;;;5092083;28;20031;-57
2021/01/22 00:41:01;;;;;;;27.52;24.60;;;20.90;50.40;;;;;;5092077;28;20377;-55
2021/01/22 00:43:27;;;;;;;27.55;24.60;;;21.00;50.40;;;;;;5092284;28;20020;-56
2021/01/22 00:45:53;;;;;;;28.80;24.58;;;20.90;50.40;;;;;;5094860;28;20024;-56
2021/01/22 00:48:19;;;;;;;26.60;23.75;;;20.90;50.40;;;;;;5098795;28;20430;-55
2021/01/22 00:50:45;;;;;;;25.25;22.55;;;21.00;50.50;;;;;;5097441;28;20062;-56
2021/01/22 00:53:13;;;;;;;28.10;22.60;;;20.90;50.40;;;;;;5097403;28;20032;-56
2021/01/22 00:55:39;;;;;;;25.35;21.08;;;20.90;50.40;;;;;;5097489;28;20024;-56
2021/01/22 00:58:24;;;;;;;25.25;21.08;;;20.90;50.40;;;;;;5098611;28;20097;-56
2021/01/22 01:01:01;;;;;;;24.83;20.52;;;20.90;50.40;;;;;;5097530;28;20485;-56
2021/01/22 01:03:31;;;;;;;;;;;20.90;50.30;;;;;;5098075;28;20028;-57
2021/01/22 01:05:59;;;;;;;24.13;19.73;;;20.90;50.40;;;;;;5097629;28;19912;-56
2021/01/22 01:08:25;;;;;;;26.02;19.10;;;20.90;50.10;;;;;;5097386;28;20563;-57
2021/01/22 01:11:15;;;;;;;28.13;18.92;;;20.90;50.20;;;;;;5097208;28;20038;-57
2021/01/22 01:13:59;;;;;;;22.52;18.85;;;20.90;50.20;;;;;;5098632;28;20512;-56
2021/01/22 01:16:26;;;;;;;25.00;19.85;;;20.90;50.30;;;;;;5097266;28;20031;-56
2021/01/22 01:18:52;;;;;;;21.13;18.67;;;20.90;50.30;;;;;;5097369;28;20563;-56
2021/01/22 01:21:18;;;;;;;23.92;19.48;;;20.80;50.30;;;;;;5096909;28;20036;-56
2021/01/22 01:23:43;;;;;;;22.92;18.48;;;20.80;50.40;;;;;;5098529;28;20041;-56
2021/01/22 01:26:10;;;;;;;22.83;20.08;;;20.80;50.40;;;;;;5080198;28;20058;-56
2021/01/22 01:28:35;;;;;;;29.45;21.83;;;20.80;50.40;;;;;;5098459;28;20022;-56
2021/01/22 01:31:01;;;;;;;25.17;22.42;;;20.80;50.40;;;;;;5097424;28;20119;-56
2021/01/22 01:33:27;;;;;;;28.95;25.95;;;20.80;50.40;;;;;;5096983;28;20028;-56
2021/01/22 01:35:53;;;;;;;29.52;24.98;;;20.80;50.60;;;;;;5098192;28;20040;-56
2021/01/22 01:38:20;;;;;;;29.60;24.80;;;20.80;50.60;;;;;;5098544;28;20024;-56
2021/01/22 01:40:46;;;;;;;27.40;23.20;;;20.80;50.60;;;;;;5098357;28;20465;-56
2021/01/22 01:43:13;;;;;;;28.73;24.27;;;20.80;50.50;;;;;;5098247;28;20028;-56
2021/01/22 01:45:42;;;;;;;30.30;25.05;;;20.80;50.60;;;;;;5097175;28;20471;-56
2021/01/22 01:48:09;;;;;;;30.15;26.88;;;20.80;50.60;;;;;;5098136;28;20059;-56
2021/01/22 01:50:36;;;;;;;30.88;27.27;;;20.70;50.60;;;;;;5098325;28;20085;-56
2021/01/22 01:53:03;;;;;;;30.85;27.55;;;20.80;50.70;;;;;;5097815;28;20118;-56
2021/01/22 01:55:35;;;;;;;30.73;27.55;;;20.80;50.90;;;;;;5098356;28;20036;-56
2021/01/22 01:58:03;;;;;;;31.73;28.33;;;20.80;50.90;;;;;;5093605;28;20478;-57
2021/01/22 02:00:30;;;;;;;27.10;24.13;;;20.80;50.90;;;;;;5076850;28;20084;-56
2021/01/22 02:02:56;;;;;;;27.45;24.63;;;20.70;50.80;;;;;;5084016;28;20115;-56
2021/01/22 02:05:22;;;;;;;28.45;25.35;;;20.80;50.80;;;;;;5074545;28;20032;-56
2021/01/22 02:07:49;;;;;;;30.55;27.27;;;20.80;50.90;;;;;;5074331;28;20024;-56
2021/01/22 02:10:16;;;;;;;31.98;27.80;;;20.80;50.90;;;;;;5074582;28;20028;-56
2021/01/22 02:12:42;;;;;;;31.42;28.05;;;20.80;50.90;;;;;;5074635;28;20029;-56
2021/01/22 02:15:11;;;;;;;31.73;28.23;;;20.70;50.90;;;;;;5074488;28;20509;-56
2021/01/22 02:17:42;;;;;;;28.87;25.87;;;20.70;50.80;;;;;;5074356;28;20028;-57
2021/01/22 02:20:23;;;;;;;26.70;22.60;;;20.70;50.80;;;;;;5074809;28;20028;-56
2021/01/22 02:22:51;;;;;;;29.48;26.27;;;20.70;50.80;;;;;;5074318;28;20039;-57
2021/01/22 02:25:21;;;;;;;26.58;23.48;;;20.70;50.70;;;;;;5074332;28;20020;-57
2021/01/22 02:27:48;;;;;;;28.50;24.77;;;20.70;50.80;;;;;;5074547;28;20155;-57
2021/01/22 02:30:14;;;;;;;27.70;24.77;;;20.70;50.70;;;;;;5072952;28;20390;-57
2021/01/22 02:32:45;;;;;;;29.27;26.17;;;20.70;50.70;;;;;;5072845;28;20173;-57
2021/01/22 02:35:13;;;;;;;29.98;26.80;;;20.70;50.90;;;;;;5073926;28;20048;-57
2021/01/22 02:37:41;;;;;;;29.08;26.00;;;20.70;50.90;;;;;;5074225;28;20542;-57
2021/01/22 02:40:10;;;;;;;31.73;28.27;;;20.70;50.90;;;;;;5074144;28;20039;-57
2021/01/22 02:42:39;;;;;;;29.20;25.88;;;20.70;50.90;;;;;;5073890;28;20035;-57
2021/01/22 02:45:09;;;;;;;28.98;25.92;;;20.70;50.90;;;;;;5072449;28;20031;-57
2021/01/22 02:47:36;;;;;;;28.70;24.70;;;20.70;50.90;;;;;;5073913;28;20021;-57
2021/01/22 02:50:05;;;;;;;29.02;25.98;;;20.70;50.80;;;;;;5073839;28;20051;-57
2021/01/22 02:52:31;;;;;;;30.13;27.15;;;20.70;50.90;;;;;;5073771;28;20032;-57
2021/01/22 02:54:57;;;;;;;29.52;26.15;;;20.70;51.00;;;;;;5073798;28;20043;-57
2021/01/22 02:57:42;;;;;;;25.08;22.45;;;20.70;51.00;;;;;;5073695;28;20538;-57
2021/01/22 03:00:12;;;;;;;29.20;26.00;;;20.70;51.00;;;;;;5073502;28;20386;-56
2021/01/22 03:03:05;;;;;;;27.08;23.67;;;20.70;50.90;;;;;;5072227;28;20029;-56
2021/01/22 03:05:33;;;;;;;26.15;23.38;;;20.60;50.90;;;;;;5073424;28;20125;-57
2021/01/22 03:08:16;;;;;;;24.75;22.13;;;20.70;50.90;;;;;;5073631;28;20052;-57
2021/01/22 03:10:46;;;;;;;28.23;24.38;;;20.70;50.90;;;;;;5073311;28;20059;-56
2021/01/22 03:13:13;;;;;;;27.30;24.27;;;20.70;51.50;;;;;;5073460;28;20040;-56
2021/01/22 03:15:40;;;;;;;26.80;22.30;;;20.70;50.90;;;;;;5071960;28;20063;-58
2021/01/22 03:18:14;;;;;;;24.45;21.95;;;20.60;50.90;;;;;;5073220;28;20027;-57
2021/01/22 03:20:44;;;;;;;28.95;25.20;;;20.60;50.90;;;;;;5073135;28;20035;-57
2021/01/22 03:23:12;;;;;;;26.70;23.15;;;20.60;51.00;;;;;;5073230;28;20333;-56
2021/01/22 03:25:39;;;;;;;28.83;24.42;;;20.70;51.00;;;;;;5071836;28;20025;-57
2021/01/22 03:28:05;;;;;;;26.15;23.35;;;20.70;51.10;;;;;;5073193;28;20126;-56
2021/01/22 03:30:32;;;;;;;28.42;25.38;;;20.70;51.20;;;;;;5073097;28;20414;-56
2021/01/22 03:32:58;;;;;;;26.30;22.27;;;20.70;51.10;;;;;;5073108;28;20040;-55
2021/01/22 03:35:25;;;;;;;24.77;22.23;;;20.60;51.10;;;;;;5073209;28;20063;-55
2021/01/22 03:37:51;;;;;;;26.15;23.42;;;20.60;51.10;;;;;;5072780;28;20075;-56
2021/01/22 03:40:18;;;;;;;26.85;23.27;;;20.60;51.10;;;;;;5072868;28;20025;-56
2021/01/22 03:42:48;;;;;;;25.83;22.42;;;20.60;51.20;;;;;;5072593;28;20059;-56
2021/01/22 03:45:15;;;;;;;24.77;22.13;;;20.60;51.20;;;;;;5072825;28;20036;-56
2021/01/22 03:47:41;;;;;;;21.83;19.15;;;20.70;51.20;;;;;;5088622;28;20044;-56
2021/01/22 03:50:08;;;;;;;22.70;20.05;;;20.60;51.20;;;;;;5072675;28;20024;-56
2021/01/22 03:52:34;;;;;;;25.02;21.52;;;20.60;51.60;;;;;;5072886;28;20088;-56
2021/01/22 03:55:00;;;;;;;22.88;20.35;;;20.60;51.20;;;;;;5073351;28;20103;-56
2021/01/22 03:57:26;;;;;;;22.45;20.10;;;20.60;51.20;;;;;;5072385;28;20050;-56
2021/01/22 03:59:52;;;;;;;21.48;19.15;;;20.60;51.20;;;;;;5072368;28;20075;-57
2021/01/22 04:02:20;;;;;;;21.50;19.35;;;20.60;51.20;;;;;;5072577;28;20035;-56
2021/01/22 04:04:47;;;;;;;22.90;20.33;;;20.60;51.20;;;;;;5072120;28;20383;-56
2021/01/22 04:07:13;;;;;;;23.13;20.63;;;20.60;51.30;;;;;;5072582;28;20493;-55
2021/01/22 04:09:39;;;;;;;22.50;19.98;;;20.60;51.30;;;;;;5072211;28;20051;-55
2021/01/22 04:12:06;;;;;;;20.67;18.58;;;20.60;51.30;;;;;;5072316;28;20474;-56
2021/01/22 04:14:32;;;;;;;22.33;19.92;;;20.60;51.40;;;;;;5072149;28;20103;-56
2021/01/22 04:16:59;;;;;;;21.85;19.38;;;20.60;51.30;;;;;;5072218;28;20111;-57
2021/01/22 04:19:25;;;;;;;22.52;20.10;;;20.60;51.30;;;;;;5070710;28;20060;-56
2021/01/22 04:21:52;;;;;;;22.13;19.92;;;20.60;51.40;;;;;;5071629;28;20024;-56
2021/01/22 04:24:18;;;;;;;22.15;19.67;;;20.60;51.40;;;;;;5072180;28;20102;-55
2021/01/22 04:26:47;;;;;;;23.77;20.88;;;20.60;51.50;;;;;;5072112;28;20056;-56
2021/01/22 04:29:13;;;;;;;22.63;20.35;;;20.60;51.50;;;;;;5070737;28;20029;-56
2021/01/22 04:31:40;;;;;;;22.15;19.25;;;20.60;51.50;;;;;;5072029;28;20041;-56
2021/01/22 04:34:06;;;;;;;22.17;19.23;;;20.60;51.50;;;;;;5070629;28;20094;-56
2021/01/22 04:36:32;;;;;;;21.95;19.55;;;20.60;51.50;;;;;;5087286;28;20523;-56
2021/01/22 04:38:58;;;;;;;22.58;20.17;;;20.60;51.50;;;;;;5072024;28;20382;-56
2021/01/22 04:41:24;;;;;;;24.70;20.27;;;20.60;51.50;;;;;;5071731;28;20028;-56
2021/01/22 04:43:50;;;;;;;21.95;17.98;;;20.60;51.50;;;;;;5072045;28;20474;-57
2021/01/22 04:46:16;;;;;;;21.73;18.67;;;20.60;51.60;;;;;;5071703;28;20025;-56
2021/01/22 04:48:43;;;;;;;20.52;17.55;;;20.60;51.60;;;;;;5070795;28;20039;-56
2021/01/22 04:51:09;;;;;;;21.63;17.63;;;20.60;51.60;;;;;;5071727;28;20025;-56
2021/01/22 04:53:37;;;;;;;22.55;17.73;;;20.60;51.60;;;;;;5070767;28;20033;-56
2021/01/22 04:56:06;;;;;;;19.50;17.40;;;20.60;51.70;;;;;;5071802;28;20078;-56
2021/01/22 04:58:35;;;;;;;19.30;17.17;;;20.60;51.70;;;;;;5071803;28;20470;-56
2021/01/22 05:01:03;;;;;;;20.35;17.17;;;20.60;51.70;;;;;;5070338;28;20378;-56
2021/01/22 05:03:30;;;;;;;21.15;17.83;;;20.60;51.70;;;;;;5071650;28;20032;-56
2021/01/22 05:05:58;;;;;;;18.70;16.50;;;20.60;51.70;;;;;;5071749;28;20028;-56
2021/01/22 05:08:24;;;;;;;16.00;14.27;;;20.60;51.70;;;;;;5070536;28;20039;-56
2021/01/22 05:10:51;;;;;;;15.90;14.20;;;20.60;51.90;;;;;;5088362;28;20051;-57
2021/01/22 05:13:17;;;;;;;17.73;14.70;;;20.60;52.00;;;;;;5090659;28;20490;-56
2021/01/22 05:16:03;;;;;;;18.70;14.75;;;20.60;51.90;;;;;;5091815;28;20119;-57
2021/01/22 05:18:32;;;;;;;17.23;13.55;;;20.60;52.00;;;;;;5084866;28;20037;-56
2021/01/22 05:21:06;;;;;;;18.10;14.38;;;20.60;52.10;;;;;;5081523;28;20416;-58
2021/01/22 05:23:37;;;;;;;22.77;19.10;;;20.60;52.10;;;;;;5092856;28;20028;-58
2021/01/22 05:26:08;;;;;;;21.60;19.30;;;20.60;52.10;;;;;;5091916;28;20073;-57
2021/01/22 05:28:44;;;;;;;23.83;18.67;;;20.60;52.20;;;;;;5091808;28;20424;-58
2021/01/22 05:31:12;;;;;;;23.48;19.65;;;20.50;52.20;;;;;;5093069;28;20028;-58
2021/01/22 05:33:40;;;;;;;19.98;15.32;;;20.60;52.20;;;;;;5095068;28;20032;-58
2021/01/22 05:36:25;;;;;;;22.38;15.65;;;20.60;52.30;;;;;;5095086;28;20036;-58
2021/01/22 05:38:56;;;;;;;16.08;14.00;;;20.50;52.40;;;;;;5095751;28;20023;-58
2021/01/22 05:41:22;;;;;;;;;;;20.50;52.40;;;;;;5093533;28;20020;-55
2021/01/22 05:43:50;;;;;;;19.92;16.45;;;20.60;52.20;;;;;;5095679;28;20045;-57
2021/01/22 05:46:19;;;;;;;21.00;18.20;;;20.60;52.10;;;;;;5093103;28;20016;-57
2021/01/22 05:48:45;;;;;;;20.55;17.05;;;20.60;52.20;;;;;;5108461;28;20036;-57
2021/01/22 05:51:12;;;;;;;20.58;15.77;;;20.60;52.20;;;;;;5093456;28;20024;-57
2021/01/22 05:53:48;;;;;;;18.38;16.00;;;20.60;52.40;;;;;;5093593;28;20036;-57
2021/01/22 05:56:15;;;;;;;22.75;17.05;;;20.50;52.40;;;;;;5093174;28;20032;-57
2021/01/22 05:58:43;;;;;;;20.70;16.75;;;20.50;52.40;;;;;;5093239;28;20039;-57
2021/01/22 06:01:21;;;;;;;22.60;17.20;;;20.50;52.40;;;;;;5090991;28;20130;-57
2021/01/22 06:03:48;;;;;;;20.98;17.73;;;20.50;52.50;;;;;;5093362;28;20051;-57
2021/01/22 06:06:15;;;;;;;21.02;17.80;;;20.50;52.40;;;;;;5092661;28;20024;-57
2021/01/22 06:08:55;;;;;;;24.27;19.08;;;20.50;52.30;;;;;;5094418;28;20028;-57
2021/01/22 06:11:25;;;;;;;21.00;18.53;;;20.50;52.30;;;;;;5094598;28;20023;-57
2021/01/22 06:13:54;;;;;;;23.95;20.05;;;20.50;52.30;;;;;;5094217;28;20351;-57
2021/01/22 06:16:23;;;;;;;22.52;18.40;;;20.50;52.30;;;;;;5092916;28;20020;-57
2021/01/22 06:19:03;;;;;;;25.05;21.17;;;20.50;52.30;;;;;;5094142;28;20027;-57
2021/01/22 06:21:38;;;;;;;24.67;20.73;;;20.50;52.30;;;;;;5094243;28;20028;-58
2021/01/22 06:24:06;;;;;;;26.27;20.40;;;20.50;52.30;;;;;;5094652;28;20453;-55
2021/01/22 06:26:38;;;;;;;25.50;20.38;;;20.50;52.30;;;;;;5094376;28;20026;-56
2021/01/22 06:29:06;;;;;;;28.80;23.50;;;20.50;52.20;;;;;;5094139;28;20027;-56
2021/01/22 06:31:33;;;;;;;26.52;23.10;;;20.50;52.20;;;;;;5095500;28;20198;-57
2021/01/22 06:34:00;;;;;;;28.38;22.85;;;20.50;52.20;;;;;;5094175;28;20032;-57
2021/01/22 06:36:27;;;;;;;30.75;24.05;;;20.40;52.20;;;;;;5094731;28;20036;-62
2021/01/22 06:38:54;;;;;;;27.40;23.33;;;20.50;52.20;;;;;;5094636;28;20048;-61
2021/01/22 06:41:26;;;;;;;25.85;22.98;;;20.40;52.20;;;;;;5093420;28;20103;-62
2021/01/22 06:43:54;;;;;;;27.90;24.40;;;20.50;52.30;;;;;;5094337;28;20028;-61
2021/01/22 06:46:24;;;;;;;25.65;22.65;;;20.40;52.20;;;;;;5094608;28;20466;-61
2021/01/22 06:48:55;;;;;;;27.88;23.50;;;20.50;52.20;;;;;;5093892;28;20480;-61
2021/01/22 06:51:22;;;;;;;;;;;20.40;52.20;;;;;;5094646;28;20031;-61
2021/01/22 06:54:09;;;;;;;27.63;23.25;;;20.40;52.20;;;;;;5092978;28;19934;-62
2021/01/22 06:57:04;;;;;;;29.33;24.98;;;20.50;52.10;;;;;;5091772;28;20036;-61
2021/01/22 06:59:35;;;;;;;28.55;22.48;;;20.40;52.10;;;;;;5093192;28;20481;-59
2021/01/22 07:02:01;;;;;;;28.33;23.83;;;20.50;52.10;;;;;;5092446;28;20031;-63
2021/01/22 07:04:34;;;;;;;28.45;23.90;;;20.40;52.20;;;;;;5092997;28;20040;-61
2021/01/22 07:07:04;;;;;;;32.65;23.90;;;20.40;52.30;;;;;;5091561;28;20389;-63
2021/01/22 07:09:46;;;;;;;27.08;24.27;;;20.40;52.30;;;;;;5101375;28;20027;-63
2021/01/22 07:12:36;;;;;;;29.65;24.92;;;20.40;52.30;;;;;;5091095;28;20032;-63
2021/01/22 07:15:24;;;;;;;31.95;24.85;;;20.40;52.30;;;;;;5092824;28;20032;-63
2021/01/22 07:17:58;;;;;;;28.70;24.55;;;20.40;52.40;;;;;;5092884;28;20039;-63
2021/01/22 07:20:25;;;;;;;30.10;25.30;;;20.40;52.50;;;;;;5092694;28;20032;-63
2021/01/22 07:23:00;;;;;;;26.48;22.25;;;20.40;52.50;;;;;;5092682;28;20054;-63
2021/01/22 07:25:38;;;;;;;27.67;21.25;;;20.30;52.60;;;;;;5092674;28;20031;-64
2021/01/22 07:28:24;;;;;;;25.88;21.90;;;20.40;52.80;;;;;;5091592;28;20479;-64
2021/01/22 07:30:51;;;;;;;27.77;21.80;;;20.30;52.70;;;;;;5092549;28;20020;-63
2021/01/22 07:33:26;;;;;;;27.30;21.05;;;20.40;52.80;;;;;;5092590;28;20039;-63
2021/01/22 07:36:19;;;;;;;26.20;22.90;;;20.40;53.00;;;;;;5092673;28;20786;-65
2021/01/22 07:38:50;;;;;;;861.90;761.63;;;20.40;52.90;;;;;;5091476;28;20111;-64
2021/01/22 07:41:21;;;;;;;613.95;550.72;;;20.30;53.40;;;;;;5092564;28;20053;-62
2021/01/22 07:44:00;;;;;;;552.85;495.38;;;20.30;53.80;;;;;;5074721;28;20106;-61
2021/01/22 07:46:27;;;;;;;152.35;123.18;;;20.30;53.90;;;;;;5092304;28;20028;-61
2021/01/22 07:49:07;;;;;;;150.15;120.85;;;20.30;54.00;;;;;;5092479;28;20024;-60
2021/01/22 07:51:37;;;;;;;172.82;143.23;;;20.20;54.10;;;;;;5092450;28;20040;-61
2021/01/22 07:54:04;;;;;;;115.25;99.05;;;20.20;54.20;;;;;;5092944;28;20090;-60
2021/01/22 07:56:40;;;;;;;115.07;93.65;;;20.10;54.10;;;;;;5090082;28;20067;-61
2021/01/22 07:59:07;;;;;;;62.80;48.95;;;20.10;54.40;;;;;;5092436;28;20337;-61
2021/01/22 08:01:36;;;;;;;49.70;34.83;;;20.00;54.50;;;;;;5090510;28;20081;-60
2021/01/22 08:04:02;;;;;;;51.53;35.10;;;19.90;54.80;;;;;;5092132;28;20525;-58
2021/01/22 08:06:28;;;;;;;36.33;20.90;;;19.80;55.00;;;;;;5091887;28;20020;-61
2021/01/22 08:09:11;;;;;;;55.10;33.65;;;19.80;55.50;;;;;;5091810;28;20469;-62
2021/01/22 08:11:39;;;;;;;35.60;23.48;;;19.70;55.60;;;;;;5091959;28;20385;-62
2021/01/22 08:14:06;;;;;;;42.08;25.27;;;19.70;55.80;;;;;;5091730;28;20020;-60
2021/01/22 08:16:33;;;;;;;46.58;25.63;;;19.60;55.90;;;;;;5090417;28;20032;-60
2021/01/22 08:19:00;;;;;;;32.90;20.02;;;19.60;56.20;;;;;;5091872;28;20036;-61
2021/01/22 08:21:30;;;;;;;28.08;15.05;;;19.60;56.30;;;;;;5090576;28;20028;-61
2021/01/22 08:23:58;;;;;;;36.00;23.35;;;19.50;56.60;;;;;;5090466;28;20035;-61
2021/01/22 08:26:26;;;;;;;32.83;19.42;;;19.50;56.30;;;;;;5091770;28;20081;-60
2021/01/22 08:28:55;;;;;;;30.85;20.38;;;19.50;56.60;;;;;;5091672;28;20469;-60
2021/01/22 08:31:22;;;;;;;29.65;16.88;;;19.50;56.50;;;;;;5091756;28;20012;-60
2021/01/22 08:33:49;;;;;;;22.38;11.57;;;19.50;56.60;;;;;;5091712;28;20032;-62
2021/01/22 08:36:16;;;;;;;23.52;14.27;;;19.50;56.60;;;;;;5091301;28;20497;-62
2021/01/22 08:38:42;;;;;;;23.50;11.27;;;19.50;56.70;;;;;;5091551;28;20024;-61
2021/01/22 08:41:08;;;;;;;34.50;13.82;;;19.50;56.90;;;;;;5091553;28;20052;-61
2021/01/22 08:43:54;;;;;;;25.05;10.52;;;19.50;56.90;;;;;;5091365;28;20035;-60
2021/01/22 08:46:24;;;;;;;24.77;9.43;;;19.50;56.90;;;;;;5089828;28;20027;-60
2021/01/22 08:48:51;;;;;;;18.77;8.77;;;19.60;57.00;;;;;;5091611;28;20020;-61
2021/01/22 08:51:30;;;;;;;21.70;10.10;;;19.60;56.90;;;;;;5091363;28;20035;-59
2021/01/22 08:53:57;;;;;;;22.40;11.05;;;19.60;57.10;;;;;;5091665;28;20048;-59
2021/01/22 08:56:24;;;;;;;17.10;10.00;;;19.60;56.80;;;;;;5091340;28;20504;-61
2021/01/22 08:59:03;;;;;;;22.23;9.38;;;19.70;56.90;;;;;;5091762;28;20024;-61
2021/01/22 09:01:52;;;;;;;17.63;9.05;;;19.70;57.00;;;;;;5091226;28;20031;-61
2021/01/22 09:04:24;;;;;;;17.35;8.98;;;19.70;56.60;;;;;;5091390;28;20028;-61
2021/01/22 09:06:54;;;;;;;16.70;10.60;;;19.80;56.40;;;;;;5092507;28;20027;-61
2021/01/22 09:09:41;;;;;;;16.10;8.25;;;19.80;56.30;;;;;;5095197;28;20085;-62
2021/01/22 09:12:12;;;;;;;20.42;13.95;;;19.80;56.00;;;;;;5093870;28;20378;-61
2021/01/22 09:14:49;;;;;;;74.13;61.10;;;19.90;55.90;;;;;;5095011;28;20032;-60
2021/01/22 09:17:26;;;;;;;80.78;61.17;;;19.90;55.80;;;;;;5095776;28;20086;-60
2021/01/22 09:19:58;;;;;;;118.35;104.57;;;20.00;55.80;;;;;;5094403;28;20028;-67
2021/01/22 09:22:30;;;;;;;74.75;64.63;;;20.00;56.20;;;;;;5095002;28;20036;-67
2021/01/22 09:24:58;;;;;;;112.43;98.53;;;20.10;55.60;;;;;;5095390;28;20032;-61
2021/01/22 09:27:24;;;;;;;105.10;93.47;;;20.20;55.50;;;;;;5095407;28;20020;-62
2021/01/22 09:29:50;;;;;;;62.33;53.58;;;20.20;55.40;;;;;;5094788;28;20192;-61
2021/01/22 09:32:16;;;;;;;41.53;33.65;;;20.30;55.00;;;;;;5094900;28;20032;-60
2021/01/22 09:34:42;;;;;;;50.55;43.00;;;20.30;54.40;;;;;;5094816;28;20047;-61
2021/01/22 09:37:09;;;;;;;40.95;32.60;;;20.40;54.40;;;;;;5094735;28;20031;-59
2021/01/22 09:39:35;;;;;;;37.13;31.42;;;20.40;54.00;;;;;;5094901;28;20082;-63
2021/01/22 09:42:01;;;;;;;43.95;35.28;;;20.50;53.90;;;;;;5094594;28;20404;-60
2021/01/22 09:44:27;;;;;;;22.67;14.82;;;20.60;53.60;;;;;;5094551;28;20051;-61
2021/01/22 09:46:53;;;;;;;24.52;17.30;;;20.60;52.10;;;;;;5094516;28;20043;-61
2021/01/22 09:49:19;;;;;;;18.20;12.80;;;20.70;52.10;;;;;;5094507;28;20028;-59
2021/01/22 09:51:45;;;;;;;17.92;13.90;;;20.70;51.50;;;;;;5093266;28;20043;-58
2021/01/22 09:54:11;;;;;;;19.40;9.88;;;20.80;50.80;;;;;;5094208;28;20106;-60
2021/01/22 09:56:38;;;;;;;26.50;20.63;;;20.80;50.50;;;;;;5094659;28;20381;-61
2021/01/22 09:59:07;;;;;;;20.63;10.60;;;20.90;50.70;;;;;;5094181;28;20023;-61
2021/01/22 10:01:35;;;;;;;19.33;10.95;;;20.90;49.80;;;;;;5094349;28;20028;-59
2021/01/22 10:04:02;;;;;;;15.80;8.45;;;21.00;49.90;;;;;;5094191;28;20473;-59
2021/01/22 10:06:28;;;;;;;13.63;6.15;;;21.00;49.60;;;;;;5094364;28;20051;-60
2021/01/22 10:08:55;;;;;;;12.38;4.85;;;21.00;49.30;;;;;;5094121;28;20388;-61
2021/01/22 10:11:21;;;;;;;11.23;4.57;;;21.00;49.30;;;;;;5094260;28;20020;-61
2021/01/22 10:13:54;;;;;;;28.48;19.83;;;21.10;49.40;;;;;;5092867;28;20103;-62
2021/01/22 10:16:25;;;;;;;23.88;16.15;;;21.10;49.10;;;;;;5094748;28;20051;-61
2021/01/22 10:18:53;;;;;;;13.65;7.00;;;21.20;48.70;;;;;;5093570;28;20024;-62
2021/01/22 10:21:21;;;;;;;10.13;6.18;;;21.20;47.80;;;;;;5095212;28;20020;-64
2021/01/22 10:23:48;;;;;;;19.40;13.27;;;21.30;47.90;;;;;;5095788;28;20032;-64
2021/01/22 10:26:15;;;;;;;17.05;11.70;;;21.30;47.00;;;;;;5094661;28;20093;-64
2021/01/22 10:28:41;;;;;;;22.55;13.52;;;21.40;47.30;;;;;;5095701;28;20028;-64
2021/01/22 10:31:07;;;;;;;9.25;4.72;;;21.50;47.10;;;;;;5096006;28;20024;-64
2021/01/22 10:33:33;;;;;;;9.57;6.22;;;21.50;46.00;;;;;;5095548;28;20047;-63
2021/01/22 10:36:00;;;;;;;8.05;4.25;;;21.60;46.10;;;;;;5095486;28;20052;-65
2021/01/22 10:38:27;;;;;;;9.73;3.75;;;21.70;45.60;;;;;;5094476;28;20028;-64
2021/01/22 10:40:54;;;;;;;10.07;3.10;;;21.80;45.40;;;;;;5094655;28;20490;-69
2021/01/22 10:43:21;;;;;;;14.68;5.50;;;22.00;44.30;;;;;;5100509;28;20046;-65
2021/01/22 10:45:47;;;;;;;13.68;4.45;;;22.30;43.90;;;;;;5074523;28;20430;-64
2021/01/22 10:48:13;;;;;;;14.80;9.55;;;22.50;42.30;;;;;;5074536;28;20055;-68
2021/01/22 10:50:39;;;;;;;35.92;29.95;;;22.70;42.50;;;;;;5075176;28;20032;-67
2021/01/22 10:53:05;;;;;;;38.08;31.98;;;22.70;41.80;;;;;;5093429;28;20469;-66
2021/01/22 10:55:31;;;;;;;24.35;18.10;;;22.80;41.30;;;;;;5094554;28;20436;-66
2021/01/22 10:57:57;;;;;;;38.65;32.72;;;22.80;41.20;;;;;;5094552;28;20428;-67
2021/01/22 11:00:23;;;;;;;69.70;58.80;;;22.80;41.50;;;;;;5094281;28;20032;-65
2021/01/22 11:02:49;;;;;;;41.28;32.08;;;22.90;41.40;;;;;;5094078;28;20085;-66
2021/01/22 11:05:15;;;;;;;22.45;15.45;;;22.90;41.40;;;;;;5092537;28;20028;-66
2021/01/22 11:07:41;;;;;;;14.85;8.07;;;22.90;41.30;;;;;;5080193;28;20052;-66
2021/01/22 11:10:07;;;;;;;10.85;5.53;;;22.90;41.20;;;;;;5073680;28;20035;-65
2021/01/22 11:12:33;;;;;;;16.75;5.95;;;23.00;41.40;;;;;;5074136;28;20482;-67
2021/01/22 11:15:00;;;;;;;29.05;19.08;;;23.10;41.40;;;;;;5073804;28;20034;-65
2021/01/22 11:17:26;;;;;;;15.90;12.48;;;23.10;41.60;;;;;;5073617;28;20136;-66
2021/01/22 11:19:52;;;;;;;17.02;9.95;;;23.20;41.80;;;;;;5089582;28;20112;-58
2021/01/22 11:22:18;;;;;;;36.42;26.55;;;23.30;41.70;;;;;;5094773;28;20036;-58
2021/01/22 11:24:44;;;;;;;27.80;20.90;;;23.40;42.10;;;;;;5093337;28;20478;-58
2021/01/22 11:27:10;;;;;;;18.95;10.20;;;23.50;42.30;;;;;;5093431;28;20020;-58
2021/01/22 11:29:39;;;;;;;15.75;6.35;;;23.60;42.20;;;;;;5093112;28;20470;-59
2021/01/22 11:32:06;;;;;;;12.00;5.20;;;23.90;42.00;;;;;;5094452;28;20060;-59
2021/01/22 11:34:34;;;;;;;10.07;4.13;;;24.00;42.20;;;;;;5094238;28;20501;-60
2021/01/22 11:37:01;;;;;;;9.32;3.20;;;24.10;41.70;;;;;;5094482;28;20036;-60
2021/01/22 11:39:27;;;;;;;11.57;3.60;;;24.30;41.60;;;;;;5094263;28;20027;-61
2021/01/22 11:41:53;;;;;;;14.18;3.65;;;24.60;41.20;;;;;;5094477;28;20482;-61
2021/01/22 11:44:20;;;;;;;16.33;5.00;;;24.90;39.80;;;;;;5093044;28;20560;-58
2021/01/22 11:46:46;;;;;;;9.25;3.83;;;25.30;39.50;;;;;;5094006;28;20024;-55
2021/01/22 11:49:12;;;;;;;10.52;3.30;;;25.70;38.90;;;;;;5093864;28;20492;-56
2021/01/22 11:51:38;;;;;;;12.65;3.67;;;26.20;37.90;;;;;;5093448;28;20047;-57
2021/01/22 11:54:06;;;;;;;12.57;3.03;;;26.70;36.10;;;;;;5093543;28;20065;-63
2021/01/22 11:56:33;;;;;;;10.10;3.53;;;27.20;35.60;;;;;;5093241;28;20482;-60
2021/01/22 11:58:59;;;;;;;8.68;3.33;;;27.60;34.80;;;;;;5093691;28;20024;-58
2021/01/22 12:01:25;;;;;;;13.98;3.88;;;28.00;33.90;;;;;;5093442;28;20024;-59
2021/01/22 12:03:52;;;;;;;14.00;4.05;;;28.30;33.70;;;;;;5093800;28;20028;-56
2021/01/22 12:06:18;;;;;;;44.17;34.15;;;28.70;33.40;;;;;;5093861;28;20104;-58
2021/01/22 12:08:44;;;;;;;38.85;31.08;;;28.90;33.00;;;;;;5093979;28;20028;-60
2021/01/22 12:11:10;;;;;;;50.00;39.95;;;29.10;32.70;;;;;;5093544;28;20082;-59
2021/01/22 12:13:36;;;;;;;26.85;21.30;;;29.30;32.80;;;;;;5093335;28;20035;-59
2021/01/22 12:16:02;;;;;;;21.52;16.02;;;29.40;32.70;;;;;;5093522;28;20024;-58
2021/01/22 12:18:28;;;;;;;40.83;36.50;;;29.60;31.90;;;;;;5092849;28;20425;-60
2021/01/22 12:20:54;;;;;;;30.60;25.20;;;29.70;32.20;;;;;;5093416;28;20051;-59
2021/01/22 12:23:20;;;;;;;29.38;24.60;;;29.70;31.60;;;;;;5093251;28;20077;-57
2021/01/22 12:25:46;;;;;;;74.60;66.88;;;29.80;32.00;;;;;;5093451;28;20055;-57
2021/01/22 12:28:16;;;;;;;73.03;65.03;;;29.80;32.00;;;;;;5093483;28;20469;-57
2021/01/22 12:30:43;;;;;;;64.60;58.10;;;29.90;31.50;;;;;;5093844;28;20028;-57
2021/01/22 12:33:10;;;;;;;63.97;57.22;;;30.00;31.90;;;;;;5093655;28;20416;-57
2021/01/22 12:35:36;;;;;;;58.20;52.17;;;30.40;32.20;;;;;;5093275;28;20044;-57
2021/01/22 12:38:02;;;;;;;52.92;47.58;;;30.80;32.10;;;;;;5093513;28;20074;-57